createdAt,value
2019-05-21T00:02:39.252Z,45.53
2019-05-21T00:05:45.072Z,50.17
2019-05-21T00:08:50.196Z,50.77
2019-05-21T00:11:54.945Z,51.23
2019-05-21T00:15:00.978Z,45.80
2019-05-21T00:18:05.745Z,47.20
2019-05-21T00:21:10.859Z,46.43
2019-05-21T00:24:15.623Z,46.93
2019-05-21T00:27:20.476Z,44.40
2019-05-21T00:31:01.856Z,41.23
2019-05-21T00:34:44.374Z,40.90
2019-05-21T00:38:25.879Z,44.43
2019-05-21T00:42:03.984Z,43.23
2019-05-21T00:45:10.735Z,43.07
2019-05-21T00:48:15.480Z,41.53
2019-05-21T00:51:20.273Z,45.10
2019-05-21T00:54:25.108Z,45.70
2019-05-21T00:57:29.871Z,43.53
2019-05-21T01:00:34.846Z,41.53
2019-05-21T01:03:43.167Z,41.00
2019-05-21T01:06:46.927Z,41.43
2019-05-21T01:09:51.699Z,39.53
2019-05-21T01:12:56.684Z,39.43
2019-05-21T01:16:01.452Z,37.77
2019-05-21T01:19:06.189Z,36.53
2019-05-21T01:22:11.314Z,37.00
2019-05-21T01:25:16.565Z,36.77
2019-05-21T01:28:21.643Z,36.23
2019-05-21T01:31:26.713Z,36.00
2019-05-21T01:34:31.954Z,36.03
2019-05-21T01:37:37.079Z,36.10
2019-05-21T01:40:41.897Z,34.57
2019-05-21T01:43:47.704Z,37.57
2019-05-21T01:46:52.549Z,33.73
2019-05-21T01:49:57.358Z,35.13
2019-05-21T01:53:03.270Z,31.10
2019-05-21T01:56:07.979Z,32.63
2019-05-21T01:59:13.117Z,31.97
2019-05-21T02:02:18.186Z,30.27
2019-05-21T02:05:32.533Z,29.20
2019-05-21T02:08:29.387Z,31.53
2019-05-21T02:11:34.147Z,30.87
2019-05-21T02:14:39.248Z,29.87
2019-05-21T02:17:44.027Z,30.03
2019-05-21T02:20:49.374Z,27.13
2019-05-21T02:23:54.141Z,27.03
2019-05-21T02:26:58.871Z,26.63
2019-05-21T02:30:04.616Z,27.67
2019-05-21T02:33:09.845Z,28.67
2019-05-21T02:36:14.936Z,26.87
2019-05-21T02:39:20.007Z,25.13
2019-05-21T02:42:25.003Z,25.23
2019-05-21T02:45:29.767Z,27.47
2019-05-21T02:48:34.532Z,26.13
2019-05-21T02:51:39.609Z,23.37
2019-05-21T02:54:44.891Z,22.67
2019-05-21T02:57:49.635Z,23.30
2019-05-21T03:01:03.752Z,23.40
2019-05-21T03:04:08.746Z,22.47
2019-05-21T03:07:19.743Z,19.30
2019-05-21T03:10:24.555Z,21.17
2019-05-21T03:13:29.356Z,21.30
2019-05-21T03:16:34.132Z,20.43
2019-05-21T03:19:38.900Z,18.77
2019-05-21T03:22:44.079Z,19.60
2019-05-21T03:25:48.888Z,19.80
2019-05-21T03:28:54.062Z,16.67
2019-05-21T03:31:58.789Z,17.03
2019-05-21T03:35:03.664Z,16.87
2019-05-21T03:38:11.371Z,16.10
2019-05-21T03:41:16.402Z,17.23
2019-05-21T03:44:21.127Z,15.23
2019-05-21T03:47:26.320Z,15.77
2019-05-21T03:50:31.202Z,16.40
2019-05-21T03:53:36.242Z,16.43
2019-05-21T03:56:40.985Z,13.97
2019-05-21T03:59:46.723Z,13.47
2019-05-21T04:02:51.461Z,15.13
2019-05-21T04:05:56.233Z,17.30
2019-05-21T04:09:01.031Z,14.57
2019-05-21T04:12:07.520Z,14.93
2019-05-21T04:15:14.559Z,16.27
2019-05-21T04:18:23.974Z,13.70
2019-05-21T04:21:29.295Z,12.70
2019-05-21T04:24:34.058Z,16.50
2019-05-21T04:27:41.343Z,15.90
2019-05-21T04:30:46.766Z,16.87
2019-05-21T04:33:51.538Z,15.27
2019-05-21T04:37:10.145Z,15.33
2019-05-21T04:40:03.351Z,15.93
2019-05-21T04:43:08.139Z,15.60
2019-05-21T04:46:12.975Z,16.37
2019-05-21T04:49:17.967Z,15.20
2019-05-21T04:52:22.726Z,16.40
2019-05-21T04:55:27.923Z,21.03
2019-05-21T04:58:34.618Z,18.27
2019-05-21T05:01:39.344Z,16.13
2019-05-21T05:04:44.432Z,19.97
2019-05-21T05:07:49.525Z,16.17
2019-05-21T05:10:54.660Z,15.83
2019-05-21T05:13:59.408Z,17.07
2019-05-21T05:17:04.174Z,16.37
2019-05-21T05:20:09.097Z,14.23
2019-05-21T05:23:13.832Z,19.20
2019-05-21T05:26:19.183Z,15.53
2019-05-21T05:29:24.037Z,16.27
2019-05-21T05:32:29.141Z,14.67
2019-05-21T05:35:34.189Z,14.33
2019-05-21T05:38:38.954Z,16.00
2019-05-21T05:41:45.374Z,14.53
2019-05-21T05:44:50.614Z,16.57
2019-05-21T05:47:55.369Z,16.03
2019-05-21T05:51:02.603Z,14.50
2019-05-21T05:54:07.951Z,16.13
2019-05-21T05:57:13.151Z,14.23
2019-05-21T06:00:18.687Z,16.70
2019-05-21T06:03:23.451Z,15.07
2019-05-21T06:06:28.288Z,15.43
2019-05-21T06:09:33.300Z,17.80
2019-05-21T06:12:38.397Z,15.80
2019-05-21T06:15:43.213Z,15.40
2019-05-21T06:18:49.058Z,18.47
2019-05-21T06:21:53.889Z,14.67
2019-05-21T06:24:58.655Z,16.97
2019-05-21T06:28:03.455Z,16.90
2019-05-21T06:31:08.591Z,16.47
2019-05-21T06:34:13.668Z,13.93
2019-05-21T06:37:18.865Z,15.43
2019-05-21T06:40:23.693Z,16.27
2019-05-21T06:43:28.424Z,15.30
2019-05-21T06:46:33.332Z,14.10
2019-05-21T06:49:38.146Z,14.47
2019-05-21T06:52:43.125Z,16.97
2019-05-21T06:55:47.966Z,14.93
2019-05-21T06:58:52.785Z,13.33
2019-05-21T07:01:57.512Z,12.17
2019-05-21T07:05:02.399Z,12.50
2019-05-21T07:08:07.408Z,11.37
2019-05-21T07:11:12.540Z,13.47
2019-05-21T07:14:17.276Z,11.57
2019-05-21T07:17:22.115Z,11.60
2019-05-21T07:20:27.137Z,10.63
2019-05-21T07:23:32.202Z,12.03
2019-05-21T07:26:37.041Z,9.97
2019-05-21T07:29:42.340Z,10.90
2019-05-21T07:32:47.479Z,11.10
2019-05-21T07:35:52.544Z,8.90
2019-05-21T07:38:57.274Z,8.27
2019-05-21T07:42:03.159Z,9.00
2019-05-21T07:45:09.615Z,6.50
2019-05-21T07:48:14.354Z,6.70
2019-05-21T07:51:19.259Z,6.13
2019-05-21T07:54:24.088Z,6.37
2019-05-21T07:57:28.852Z,6.17
2019-05-21T08:00:36.801Z,7.60
2019-05-21T08:03:41.946Z,7.87
2019-05-21T08:06:46.751Z,6.63
2019-05-21T08:09:51.800Z,7.37
2019-05-21T08:12:56.590Z,6.67
2019-05-21T08:16:01.395Z,7.13
2019-05-21T08:19:06.153Z,8.53
2019-05-21T08:22:10.985Z,7.37
2019-05-21T08:25:15.903Z,6.67
2019-05-21T08:28:20.652Z,7.77
2019-05-21T08:31:25.827Z,6.57
2019-05-21T08:34:30.561Z,6.73
2019-05-21T08:37:35.311Z,5.87
2019-05-21T08:40:40.296Z,4.77
2019-05-21T08:43:45.455Z,7.80
2019-05-21T08:46:50.774Z,4.53
2019-05-21T08:49:55.642Z,4.93
2019-05-21T08:53:00.505Z,3.37
2019-05-21T08:56:05.383Z,5.43
2019-05-21T08:59:10.305Z,4.37
2019-05-21T09:02:15.472Z,5.00
2019-05-21T09:05:21.531Z,3.70
2019-05-21T09:08:26.375Z,3.90
2019-05-21T09:11:31.414Z,4.60
2019-05-21T09:14:36.278Z,3.93
2019-05-21T09:17:41.098Z,4.03
2019-05-21T09:20:45.918Z,3.73
2019-05-21T09:23:51.121Z,3.40
2019-05-21T09:26:56.041Z,3.13
2019-05-21T09:30:00.797Z,3.57
2019-05-21T09:33:05.834Z,3.43
2019-05-21T09:36:10.553Z,4.00
2019-05-21T09:39:15.667Z,3.27
2019-05-21T09:42:21.054Z,3.87
2019-05-21T09:45:25.962Z,5.13
2019-05-21T09:48:30.719Z,6.03
2019-05-21T09:51:35.568Z,5.37
2019-05-21T09:54:40.401Z,4.00
2019-05-21T09:57:55.680Z,2.90
2019-05-21T10:01:19.540Z,2.40
2019-05-21T10:04:24.673Z,2.50
2019-05-21T10:07:39.708Z,3.77
2019-05-21T10:10:36.317Z,2.60
2019-05-21T10:13:41.044Z,3.50
2019-05-21T10:16:45.807Z,3.73
2019-05-21T10:19:50.851Z,3.03
2019-05-21T10:22:55.942Z,2.93
2019-05-21T10:26:00.745Z,3.50
2019-05-21T10:29:05.967Z,3.33
2019-05-21T10:32:10.881Z,2.93
2019-05-21T10:35:15.726Z,3.40
2019-05-21T10:38:20.490Z,4.43
2019-05-21T10:41:25.722Z,2.80
2019-05-21T10:44:31.473Z,3.30
2019-05-21T10:47:36.322Z,2.80
2019-05-21T10:50:41.434Z,2.40
2019-05-21T10:53:46.513Z,5.20
2019-05-21T10:56:51.261Z,3.50
2019-05-21T10:59:56.448Z,3.60
2019-05-21T11:03:10.087Z,2.50
2019-05-21T11:06:17.749Z,3.00
2019-05-21T11:09:23.068Z,2.87
2019-05-21T11:12:28.213Z,2.17
2019-05-21T11:15:33.722Z,2.70
2019-05-21T11:18:38.476Z,3.37
2019-05-21T11:21:43.523Z,2.80
2019-05-21T11:24:48.322Z,2.50
2019-05-21T11:27:53.503Z,2.40
2019-05-21T11:30:58.307Z,3.60
2019-05-21T11:34:03.347Z,4.43
2019-05-21T11:37:08.475Z,5.37
2019-05-21T11:40:15.044Z,4.63
2019-05-21T11:43:20.153Z,4.53
2019-05-21T11:46:26.962Z,3.37
2019-05-21T11:49:32.259Z,2.27
2019-05-21T11:52:37.164Z,3.80
2019-05-21T11:55:41.927Z,3.30
2019-05-21T11:58:46.662Z,2.47
2019-05-21T12:01:52.568Z,1.90
2019-05-21T12:04:57.356Z,2.10
2019-05-21T12:08:03.836Z,1.80
2019-05-21T12:11:08.841Z,2.83
2019-05-21T12:14:13.571Z,2.60
2019-05-21T12:17:18.370Z,3.10
2019-05-21T12:20:36.417Z,2.70
2019-05-21T12:23:29.907Z,2.53
2019-05-21T12:26:34.998Z,2.57
2019-05-21T12:29:39.738Z,5.03
2019-05-21T12:32:44.506Z,2.93
2019-05-21T12:35:49.646Z,2.27
2019-05-21T12:38:54.673Z,4.07
2019-05-21T12:41:59.518Z,3.80
2019-05-21T12:45:05.298Z,2.00
2019-05-21T12:48:10.053Z,3.47
2019-05-21T12:51:15.113Z,1.97
2019-05-21T12:54:20.208Z,2.20
2019-05-21T12:57:25.293Z,3.50
2019-05-21T13:00:31.239Z,3.03
2019-05-21T13:03:36.385Z,3.07
2019-05-21T13:06:41.228Z,3.03
2019-05-21T13:09:46.085Z,2.20
2019-05-21T13:12:50.936Z,2.73
2019-05-21T13:15:55.752Z,3.13
2019-05-21T13:19:00.762Z,3.10
2019-05-21T13:22:05.804Z,3.47
2019-05-21T13:25:10.960Z,3.20
2019-05-21T13:28:15.885Z,2.67
2019-05-21T13:31:21.003Z,3.30
2019-05-21T13:34:26.903Z,4.40
2019-05-21T13:37:31.764Z,2.90
2019-05-21T13:40:36.859Z,3.80
2019-05-21T13:43:42.804Z,3.70
2019-05-21T13:46:47.638Z,3.60
2019-05-21T13:49:52.413Z,3.70
2019-05-21T13:52:57.148Z,3.20
2019-05-21T13:56:01.920Z,5.07
2019-05-21T13:59:06.712Z,4.87
2019-05-21T14:02:13.987Z,4.13
2019-05-21T14:05:19.071Z,3.43
2019-05-21T14:08:23.914Z,3.40
2019-05-21T14:11:29.277Z,3.83
2019-05-21T14:14:34.134Z,3.83
2019-05-21T14:17:39.192Z,3.30
2019-05-21T14:20:44.486Z,5.40
2019-05-21T14:23:49.240Z,3.57
2019-05-21T14:26:54.144Z,3.90
2019-05-21T14:29:58.987Z,3.63
2019-05-21T14:33:03.883Z,4.27
2019-05-21T14:36:08.688Z,5.27
2019-05-21T14:39:15.893Z,3.20
2019-05-21T14:42:21.078Z,3.47
2019-05-21T14:45:29.953Z,3.63
2019-05-21T14:48:32.975Z,3.60
2019-05-21T14:51:37.725Z,4.33
2019-05-21T14:54:42.899Z,4.90
2019-05-21T14:57:47.936Z,3.30
2019-05-21T15:00:52.934Z,3.10
2019-05-21T15:03:57.761Z,6.70
2019-05-21T15:07:02.610Z,4.63
2019-05-21T15:10:07.695Z,4.83
2019-05-21T15:13:12.606Z,4.67
2019-05-21T15:16:17.402Z,4.50
2019-05-21T15:19:22.687Z,4.00
2019-05-21T15:22:29.126Z,3.67
2019-05-21T15:25:34.162Z,3.63
2019-05-21T15:28:38.986Z,3.47
2019-05-21T15:31:43.857Z,4.10
2019-05-21T15:34:48.659Z,4.17
2019-05-21T15:37:53.416Z,3.07
2019-05-21T15:41:09.603Z,3.03
2019-05-21T15:44:04.728Z,3.03
2019-05-21T15:47:09.514Z,2.87
2019-05-21T15:50:14.724Z,2.90
2019-05-21T15:53:20.110Z,2.37
2019-05-21T15:56:25.219Z,2.20
2019-05-21T15:59:30.094Z,2.50
2019-05-21T16:02:35.152Z,5.73
2019-05-21T16:05:39.968Z,4.77
2019-05-21T16:08:45.083Z,3.70
2019-05-21T16:11:49.820Z,3.37
2019-05-21T16:14:55.725Z,3.53
2019-05-21T16:18:00.822Z,3.13
2019-05-21T16:21:05.827Z,3.73
2019-05-21T16:24:11.013Z,3.10
2019-05-21T16:27:15.902Z,3.77
2019-05-21T16:30:22.214Z,3.60
2019-05-21T16:33:26.987Z,4.13
2019-05-21T16:36:32.041Z,3.57
2019-05-21T16:39:37.109Z,4.83
2019-05-21T16:42:41.919Z,2.60
2019-05-21T16:45:46.992Z,3.67
2019-05-21T16:48:53.350Z,2.90
2019-05-21T16:51:58.466Z,3.43
2019-05-21T16:55:03.641Z,2.20
2019-05-21T16:58:08.667Z,2.33
2019-05-21T17:01:15.460Z,2.27
2019-05-21T17:04:20.223Z,3.27
2019-05-21T17:07:26.354Z,2.03
2019-05-21T17:10:31.113Z,2.20
2019-05-21T17:13:35.881Z,3.23
2019-05-21T17:16:41.162Z,3.23
2019-05-21T17:19:46.198Z,2.30
2019-05-21T17:22:50.944Z,3.13
2019-05-21T17:25:56.997Z,3.37
2019-05-21T17:29:01.804Z,2.80
2019-05-21T17:32:06.894Z,2.57
2019-05-21T17:35:12.171Z,2.97
2019-05-21T17:38:17.354Z,3.00
2019-05-21T17:41:22.307Z,3.70
2019-05-21T17:44:27.128Z,3.23
2019-05-21T17:47:31.890Z,5.50
2019-05-21T17:50:36.730Z,4.23
2019-05-21T17:53:41.593Z,3.30
2019-05-21T17:56:46.484Z,3.83
2019-05-21T17:59:51.428Z,5.03
2019-05-21T18:02:56.235Z,4.47
2019-05-21T18:06:03.124Z,4.40
2019-05-21T18:09:11.453Z,4.00
2019-05-21T18:12:31.253Z,5.40
2019-05-21T18:15:24.018Z,3.50
2019-05-21T18:18:28.853Z,3.73
2019-05-21T18:21:34.322Z,4.00
2019-05-21T18:24:39.452Z,4.03
2019-05-21T18:27:44.603Z,5.13
2019-05-21T18:30:51.106Z,5.20
2019-05-21T18:33:56.248Z,4.30
2019-05-21T18:37:02.518Z,4.60
2019-05-21T18:40:07.929Z,4.27
2019-05-21T18:43:12.835Z,4.10
2019-05-21T18:46:17.608Z,4.60
2019-05-21T18:49:22.744Z,4.30
2019-05-21T18:52:28.391Z,5.73
2019-05-21T18:55:34.519Z,6.10
2019-05-21T18:58:39.760Z,4.33
2019-05-21T19:01:44.531Z,4.70
2019-05-21T19:04:49.307Z,5.17
2019-05-21T19:07:54.209Z,5.17
2019-05-21T19:10:59.157Z,4.83
2019-05-21T19:14:04.559Z,5.10
2019-05-21T19:17:09.404Z,4.77
2019-05-21T19:20:15.384Z,5.53
2019-05-21T19:23:20.553Z,6.07
2019-05-21T19:26:25.346Z,5.30
2019-05-21T19:29:30.190Z,6.53
2019-05-21T19:32:35.446Z,6.20
2019-05-21T19:35:40.400Z,6.77
2019-05-21T19:38:45.736Z,5.60
2019-05-21T19:41:50.855Z,7.53
2019-05-21T19:44:56.592Z,7.27
2019-05-21T19:48:01.965Z,6.83
2019-05-21T19:51:07.079Z,8.27
2019-05-21T19:54:11.969Z,8.57
2019-05-21T19:57:18.826Z,8.93
2019-05-21T20:00:26.365Z,9.40
2019-05-21T20:03:31.573Z,8.57
2019-05-21T20:06:37.267Z,10.20
2019-05-21T20:09:43.901Z,11.70
2019-05-21T20:12:49.062Z,11.20
2019-05-21T20:15:55.440Z,10.47
2019-05-21T20:19:00.369Z,11.33
2019-05-21T20:22:06.666Z,11.90
2019-05-21T20:25:11.847Z,11.27
2019-05-21T20:28:17.150Z,12.10
2019-05-21T20:31:23.533Z,13.07
2019-05-21T20:34:29.222Z,13.20
2019-05-21T20:37:34.296Z,12.23
2019-05-21T20:40:40.130Z,12.87
2019-05-21T20:43:58.263Z,15.40
2019-05-21T20:46:51.784Z,13.60
2019-05-21T20:49:57.294Z,12.23
2019-05-21T20:53:02.107Z,13.40
2019-05-21T20:56:09.338Z,13.43
2019-05-21T20:59:14.971Z,14.17
2019-05-21T21:02:20.442Z,14.13
2019-05-21T21:05:26.350Z,18.00
2019-05-21T21:08:32.964Z,12.17
2019-05-21T21:11:38.196Z,13.53
2019-05-21T21:14:44.298Z,12.33
2019-05-21T21:17:49.441Z,13.23
2019-05-21T21:20:54.677Z,11.83
2019-05-21T21:24:00.753Z,12.10
2019-05-21T21:27:05.864Z,11.57
2019-05-21T21:30:11.512Z,13.60
2019-05-21T21:33:17.148Z,12.47
2019-05-21T21:36:22.586Z,12.53
2019-05-21T21:39:28.646Z,12.40
2019-05-21T21:42:34.121Z,11.27
2019-05-21T21:45:39.118Z,12.97
2019-05-21T21:48:45.560Z,16.17
2019-05-21T21:51:50.964Z,12.73
2019-05-21T21:54:55.913Z,13.50
2019-05-21T21:58:00.912Z,13.87
2019-05-21T22:01:43.870Z,13.97
2019-05-21T22:04:49.876Z,13.93
2019-05-21T22:07:55.142Z,14.77
2019-05-21T22:11:00.472Z,16.50
2019-05-21T22:14:06.433Z,15.23
2019-05-21T22:17:15.849Z,16.33
2019-05-21T22:20:21.954Z,14.03
2019-05-21T22:23:27.520Z,14.43
2019-05-21T22:26:33.560Z,13.90
2019-05-21T22:29:38.661Z,13.50
2019-05-21T22:32:44.223Z,15.73
2019-05-21T22:35:49.483Z,15.27
2019-05-21T22:38:54.365Z,14.20
2019-05-21T22:41:59.559Z,14.20
2019-05-21T22:45:08.434Z,12.63
2019-05-21T22:48:14.008Z,12.83
2019-05-21T22:51:19.084Z,12.30
2019-05-21T22:54:23.938Z,11.97
2019-05-21T22:57:29.074Z,12.93
2019-05-21T23:00:34.601Z,11.53
2019-05-21T23:03:40.069Z,14.83
2019-05-21T23:06:45.015Z,11.93
2019-05-21T23:09:50.725Z,12.73
2019-05-21T23:12:55.511Z,12.70
2019-05-21T23:16:00.726Z,12.20
2019-05-21T23:19:16.972Z,15.70
2019-05-21T23:22:27.438Z,13.27
2019-05-21T23:25:33.099Z,14.00
2019-05-21T23:28:39.890Z,12.37
2019-05-21T23:31:45.316Z,15.03
2019-05-21T23:34:50.874Z,13.17
2019-05-21T23:37:56.455Z,12.23
2019-05-21T23:41:03.435Z,13.87
2019-05-21T23:44:08.925Z,13.73
2019-05-21T23:47:15.549Z,13.37
2019-05-21T23:50:20.938Z,16.17
2019-05-21T23:53:26.469Z,15.63
2019-05-21T23:56:31.315Z,14.70
2019-05-21T23:59:36.571Z,15.60
